createdAt,value
2022-12-16T00:01:25.943Z,53.88
2022-12-16T00:03:55.473Z,54.47
2022-12-16T00:06:25.025Z,54.28
2022-12-16T00:08:52.128Z,53.95
2022-12-16T00:11:19.854Z,54.05
2022-12-16T00:13:47.334Z,54.17
2022-12-16T00:16:16.410Z,54.42
2022-12-16T00:18:44.040Z,54.00
2022-12-16T00:21:11.265Z,53.97
2022-12-16T00:23:47.202Z,53.85
2022-12-16T00:26:14.414Z,54.38
2022-12-16T00:28:41.579Z,53.87
2022-12-16T00:31:08.458Z,54.30
2022-12-16T00:33:35.753Z,54.46
2022-12-16T00:36:03.158Z,54.01
2022-12-16T00:38:29.968Z,53.58
2022-12-16T00:40:56.777Z,54.44
2022-12-16T00:43:23.460Z,54.33
2022-12-16T00:45:50.618Z,54.30
2022-12-16T00:48:19.165Z,54.03
2022-12-16T00:50:55.792Z,54.86
2022-12-16T00:53:24.074Z,54.32
2022-12-16T00:55:51.351Z,54.71
2022-12-16T00:58:18.876Z,54.83
2022-12-16T01:00:45.579Z,53.98
2022-12-16T01:03:15.579Z,53.95
2022-12-16T01:05:46.171Z,54.40
2022-12-16T01:08:13.205Z,54.11
2022-12-16T01:10:39.827Z,53.87
2022-12-16T01:13:06.584Z,53.71
2022-12-16T01:15:33.201Z,53.25
2022-12-16T01:17:59.821Z,53.87
2022-12-16T01:20:26.446Z,53.87
2022-12-16T01:22:53.047Z,54.33
2022-12-16T01:25:21.564Z,53.95
2022-12-16T01:27:48.504Z,53.61
2022-12-16T01:30:15.181Z,54.22
2022-12-16T01:32:41.821Z,53.86
2022-12-16T01:35:29.500Z,54.40
2022-12-16T01:37:56.220Z,54.32
2022-12-16T01:40:24.804Z,54.20
2022-12-16T01:42:51.735Z,54.31
2022-12-16T01:45:25.221Z,53.85
2022-12-16T01:47:56.317Z,54.44
2022-12-16T01:50:23.341Z,54.18
2022-12-16T01:52:56.756Z,54.51
2022-12-16T01:55:31.600Z,54.02
2022-12-16T01:58:09.305Z,54.53
2022-12-16T02:00:38.477Z,54.55
2022-12-16T02:03:06.372Z,54.38
2022-12-16T02:05:36.366Z,55.29
2022-12-16T02:08:10.114Z,55.37
2022-12-16T02:10:39.838Z,55.12
2022-12-16T02:13:15.455Z,54.71
2022-12-16T02:16:17.353Z,55.36
2022-12-16T02:19:31.140Z,54.76
2022-12-16T02:22:22.484Z,55.18
2022-12-16T02:25:26.644Z,55.44
2022-12-16T02:27:59.365Z,55.72
2022-12-16T02:31:05.516Z,55.72
2022-12-16T02:33:45.168Z,55.49
2022-12-16T02:36:41.219Z,55.19
2022-12-16T02:39:20.930Z,55.72
2022-12-16T02:41:57.439Z,55.87
2022-12-16T02:44:36.284Z,56.16
2022-12-16T02:47:02.916Z,56.19
2022-12-16T02:49:30.000Z,56.70
2022-12-16T02:51:59.696Z,56.23
2022-12-16T02:54:27.963Z,56.39
2022-12-16T02:57:03.640Z,56.79
2022-12-16T02:59:42.260Z,56.54
2022-12-16T03:02:24.398Z,56.37
2022-12-16T03:05:08.668Z,56.58
2022-12-16T03:07:38.765Z,56.45
2022-12-16T03:10:10.183Z,57.02
2022-12-16T03:12:41.291Z,56.93
2022-12-16T03:15:09.248Z,57.06
2022-12-16T03:17:37.573Z,57.27
2022-12-16T03:20:16.605Z,57.01
2022-12-16T03:22:46.433Z,56.55
2022-12-16T03:25:13.980Z,56.85
2022-12-16T03:28:04.843Z,56.81
2022-12-16T03:30:47.897Z,57.07
2022-12-16T03:33:28.264Z,56.90
2022-12-16T03:36:02.046Z,56.95
2022-12-16T03:38:29.700Z,56.99
2022-12-16T03:40:58.209Z,56.22
2022-12-16T03:43:25.247Z,56.71
2022-12-16T03:45:56.812Z,56.57
2022-12-16T03:48:26.064Z,56.57
2022-12-16T03:50:52.707Z,56.08
2022-12-16T03:53:24.526Z,56.81
2022-12-16T03:55:51.114Z,56.96
2022-12-16T03:58:17.773Z,57.47
2022-12-16T04:00:44.539Z,57.21
2022-12-16T04:03:11.366Z,57.47
2022-12-16T04:05:38.429Z,57.96
2022-12-16T04:08:05.003Z,57.89
2022-12-16T04:10:50.217Z,58.29
2022-12-16T04:13:35.884Z,58.62
2022-12-16T04:16:21.351Z,58.24
2022-12-16T04:19:07.125Z,57.77
2022-12-16T04:21:52.613Z,57.58
2022-12-16T04:24:20.281Z,57.58
2022-12-16T04:27:15.072Z,57.83
2022-12-16T04:30:02.842Z,57.95
2022-12-16T04:32:49.729Z,58.20
2022-12-16T04:35:35.077Z,57.97
2022-12-16T04:38:20.517Z,58.06
2022-12-16T04:41:05.677Z,57.78
2022-12-16T04:43:51.050Z,57.94
2022-12-16T04:46:36.466Z,58.59
2022-12-16T04:49:21.860Z,57.98
2022-12-16T04:52:07.196Z,58.22
2022-12-16T04:54:52.281Z,58.38
2022-12-16T04:57:37.452Z,58.29
2022-12-16T05:00:23.816Z,58.36
2022-12-16T05:03:09.136Z,59.10
2022-12-16T05:05:55.085Z,58.63
2022-12-16T05:08:40.276Z,59.10
2022-12-16T05:11:35.887Z,58.83
2022-12-16T05:14:21.057Z,58.87
2022-12-16T05:17:06.190Z,59.10
2022-12-16T05:19:51.290Z,58.79
2022-12-16T05:22:36.502Z,59.19
2022-12-16T05:25:22.246Z,58.60
2022-12-16T05:28:12.121Z,59.33
2022-12-16T05:30:57.509Z,59.34
2022-12-16T05:33:42.796Z,59.40
2022-12-16T05:36:27.936Z,60.13
2022-12-16T05:39:13.122Z,59.36
2022-12-16T05:41:58.472Z,59.32
2022-12-16T05:44:43.774Z,59.92
2022-12-16T05:47:29.202Z,59.67
2022-12-16T05:50:14.555Z,60.26
2022-12-16T05:53:10.366Z,59.92
2022-12-16T05:55:55.700Z,60.57
2022-12-16T05:58:41.204Z,61.01
2022-12-16T06:01:27.110Z,60.88
2022-12-16T06:04:17.221Z,60.84
2022-12-16T06:07:02.967Z,60.70
2022-12-16T06:09:53.113Z,61.21
2022-12-16T06:12:41.897Z,61.19
2022-12-16T06:15:27.526Z,60.76
2022-12-16T06:18:12.479Z,60.46
2022-12-16T06:20:58.268Z,60.44
2022-12-16T06:23:43.164Z,60.38
2022-12-16T06:26:28.317Z,59.45
2022-12-16T06:29:13.695Z,59.92
2022-12-16T06:31:58.864Z,59.61
2022-12-16T06:34:44.114Z,59.34
2022-12-16T06:37:29.073Z,58.79
2022-12-16T06:40:14.000Z,58.73
2022-12-16T06:42:59.661Z,59.20
2022-12-16T06:45:45.493Z,58.58
2022-12-16T06:48:31.321Z,58.71
2022-12-16T06:51:16.633Z,58.88
2022-12-16T06:54:01.885Z,58.63
2022-12-16T06:56:47.100Z,59.01
2022-12-16T06:59:32.668Z,59.77
2022-12-16T07:02:18.235Z,59.49
2022-12-16T07:05:03.755Z,59.12
2022-12-16T07:08:05.726Z,59.57
2022-12-16T07:10:50.878Z,59.64
2022-12-16T07:13:36.138Z,59.55
2022-12-16T07:16:21.516Z,59.49
2022-12-16T07:19:06.973Z,59.04
2022-12-16T07:21:52.399Z,59.01
2022-12-16T07:24:40.076Z,58.74
2022-12-16T07:27:25.042Z,59.28
2022-12-16T07:30:10.488Z,59.19
2022-12-16T07:32:56.038Z,59.40
2022-12-16T07:35:41.191Z,59.37
2022-12-16T07:38:26.106Z,58.82
2022-12-16T07:41:11.156Z,58.77
2022-12-16T07:43:56.456Z,58.85
2022-12-16T07:46:41.625Z,58.59
2022-12-16T07:49:26.672Z,59.42
2022-12-16T07:52:11.543Z,59.58
2022-12-16T07:54:56.974Z,59.42
2022-12-16T07:57:42.197Z,59.53
2022-12-16T08:00:28.028Z,58.88
2022-12-16T08:03:13.953Z,58.76
2022-12-16T08:05:59.256Z,58.70
2022-12-16T08:08:44.429Z,59.16
2022-12-16T08:11:29.559Z,59.15
2022-12-16T08:14:14.439Z,59.29
2022-12-16T08:16:59.770Z,58.47
2022-12-16T08:19:44.688Z,58.15
2022-12-16T08:22:29.873Z,57.93
2022-12-16T08:25:15.217Z,58.52
2022-12-16T08:28:00.648Z,58.44
2022-12-16T08:30:45.951Z,58.18
2022-12-16T08:33:31.546Z,57.96
2022-12-16T08:36:17.499Z,58.44
2022-12-16T08:39:02.917Z,58.19
2022-12-16T08:41:48.269Z,58.08
2022-12-16T08:44:33.374Z,57.47
2022-12-16T08:47:18.461Z,57.77
2022-12-16T08:50:03.328Z,57.19
2022-12-16T08:52:49.125Z,56.45
2022-12-16T08:55:34.418Z,57.12
2022-12-16T08:58:19.743Z,56.21
2022-12-16T09:01:07.771Z,56.34
2022-12-16T09:03:55.276Z,56.11
2022-12-16T09:06:41.225Z,56.78
2022-12-16T09:09:27.805Z,56.84
2022-12-16T09:12:13.120Z,56.41
2022-12-16T09:14:58.296Z,56.50
2022-12-16T09:17:43.860Z,56.52
2022-12-16T09:20:28.991Z,55.43
2022-12-16T09:23:14.369Z,55.69
2022-12-16T09:25:59.709Z,56.13
2022-12-16T09:28:45.183Z,56.42
2022-12-16T09:31:30.458Z,55.68
2022-12-16T09:34:16.339Z,56.30
2022-12-16T09:37:02.475Z,56.14
2022-12-16T09:39:54.209Z,55.60
2022-12-16T09:42:49.422Z,55.86
2022-12-16T09:45:37.960Z,55.57
2022-12-16T09:48:34.088Z,54.88
2022-12-16T09:51:24.530Z,54.52
2022-12-16T09:54:15.130Z,54.33
2022-12-16T09:57:03.550Z,54.39
2022-12-16T09:59:58.570Z,53.72
2022-12-16T10:02:44.729Z,53.70
2022-12-16T10:05:40.808Z,53.31
2022-12-16T10:08:55.569Z,53.57
2022-12-16T10:11:49.281Z,53.99
2022-12-16T10:14:46.293Z,53.77
2022-12-16T10:17:40.678Z,53.87
2022-12-16T10:20:44.535Z,53.15
2022-12-16T10:23:41.966Z,53.30
2022-12-16T10:26:42.168Z,53.26
2022-12-16T10:29:43.769Z,53.30
2022-12-16T10:32:43.370Z,53.40
2022-12-16T10:35:36.774Z,53.31
2022-12-16T10:38:28.223Z,54.00
2022-12-16T10:41:13.923Z,54.08
2022-12-16T10:44:05.178Z,53.73
2022-12-16T10:46:54.292Z,53.88
2022-12-16T10:49:41.489Z,54.67
2022-12-16T10:52:33.420Z,54.07
2022-12-16T10:55:35.705Z,52.94
2022-12-16T10:58:39.165Z,53.53
2022-12-16T11:01:41.195Z,53.12
2022-12-16T11:04:46.137Z,52.14
2022-12-16T11:07:51.569Z,52.65
2022-12-16T11:11:01.257Z,53.30
2022-12-16T11:13:49.401Z,52.88
2022-12-16T11:16:38.586Z,53.09
2022-12-16T11:19:39.213Z,52.29
2022-12-16T11:22:31.517Z,52.62
2022-12-16T11:25:46.313Z,53.25
2022-12-16T11:28:35.881Z,53.05
2022-12-16T11:31:33.283Z,52.29
2022-12-16T11:34:20.892Z,51.43
2022-12-16T11:37:28.347Z,50.45
2022-12-16T11:40:13.817Z,50.81
2022-12-16T11:43:03.017Z,50.83
2022-12-16T11:45:54.083Z,51.22
2022-12-16T11:48:55.907Z,51.52
2022-12-16T11:51:45.647Z,48.38
2022-12-16T11:54:36.961Z,40.15
2022-12-16T11:57:26.122Z,34.40
2022-12-16T12:00:17.517Z,31.80
2022-12-16T12:03:11.022Z,32.15
2022-12-16T12:06:00.743Z,30.20
2022-12-16T12:08:55.874Z,29.12
2022-12-16T12:11:54.250Z,27.02
2022-12-16T12:15:07.408Z,28.13
2022-12-16T12:17:58.983Z,29.20
2022-12-16T12:20:59.280Z,28.71
2022-12-16T12:23:54.987Z,30.25
2022-12-16T12:26:51.922Z,29.58
2022-12-16T12:29:38.204Z,27.94
2022-12-16T12:32:42.896Z,27.54
2022-12-16T12:35:40.623Z,26.92
2022-12-16T12:38:48.608Z,25.18
2022-12-16T12:41:47.430Z,24.20
2022-12-16T12:45:02.612Z,25.32
2022-12-16T12:47:49.823Z,25.73
2022-12-16T12:50:47.306Z,25.50
2022-12-16T12:54:00.284Z,24.97
2022-12-16T12:57:09.029Z,25.97
2022-12-16T13:00:23.204Z,28.15
2022-12-16T13:03:34.300Z,32.48
2022-12-16T13:06:20.580Z,36.16
2022-12-16T13:09:08.825Z,39.18
2022-12-16T13:12:18.252Z,40.51
2022-12-16T13:15:06.256Z,41.64
2022-12-16T13:18:20.457Z,42.19
2022-12-16T13:21:13.548Z,43.40
2022-12-16T13:24:03.949Z,43.79
2022-12-16T13:26:52.743Z,44.05
2022-12-16T13:29:47.710Z,44.94
2022-12-16T13:32:45.492Z,45.84
2022-12-16T13:35:32.003Z,46.42
2022-12-16T13:38:37.773Z,46.53
2022-12-16T13:41:25.851Z,46.35
2022-12-16T13:44:11.225Z,47.55
2022-12-16T13:47:08.134Z,47.22
2022-12-16T13:49:56.445Z,47.82
2022-12-16T13:53:16.247Z,47.63
2022-12-16T13:56:13.165Z,47.79
2022-12-16T13:59:02.592Z,48.51
2022-12-16T14:02:06.848Z,48.10
2022-12-16T14:05:08.438Z,47.99
2022-12-16T14:07:57.784Z,48.84
2022-12-16T14:10:53.366Z,48.99
2022-12-16T14:14:04.748Z,49.46
2022-12-16T14:17:11.136Z,49.93
2022-12-16T14:20:18.231Z,49.74
2022-12-16T14:23:55.992Z,49.50
2022-12-16T14:26:36.803Z,50.21
2022-12-16T14:29:32.536Z,50.75
2022-12-16T14:32:19.182Z,50.95
2022-12-16T14:35:04.213Z,51.15
2022-12-16T14:37:54.937Z,51.11
2022-12-16T14:40:58.408Z,51.10
2022-12-16T14:43:44.597Z,51.74
2022-12-16T14:46:50.730Z,51.82
2022-12-16T14:49:45.107Z,51.73
2022-12-16T14:52:38.486Z,51.60
2022-12-16T14:55:35.273Z,52.08
2022-12-16T14:58:28.991Z,52.27
2022-12-16T15:01:18.494Z,52.20
2022-12-16T15:04:12.124Z,52.97
2022-12-16T15:07:02.091Z,53.07
2022-12-16T15:09:57.171Z,52.22
2022-12-16T15:12:46.464Z,52.74
2022-12-16T15:15:44.237Z,52.55
2022-12-16T15:18:37.081Z,53.27
2022-12-16T15:21:22.764Z,52.84
2022-12-16T15:24:08.095Z,52.74
2022-12-16T15:26:53.749Z,52.91
2022-12-16T15:29:51.126Z,52.79
2022-12-16T15:32:54.415Z,52.71
2022-12-16T15:35:42.774Z,53.25
2022-12-16T15:38:33.850Z,53.91
2022-12-16T15:41:24.613Z,54.19
2022-12-16T15:44:10.938Z,53.91
2022-12-16T15:46:56.637Z,54.57
2022-12-16T15:49:51.503Z,53.75
2022-12-16T15:52:49.060Z,54.54
2022-12-16T15:55:50.347Z,54.16
2022-12-16T15:58:44.326Z,54.44
2022-12-16T16:01:32.553Z,54.30
2022-12-16T16:04:17.853Z,54.78
2022-12-16T16:07:09.992Z,54.78
2022-12-16T16:09:57.165Z,54.82
2022-12-16T16:12:43.819Z,54.68
2022-12-16T16:15:32.930Z,54.77
2022-12-16T16:18:38.535Z,55.38
2022-12-16T16:21:23.788Z,55.14
2022-12-16T16:24:08.642Z,55.57
2022-12-16T16:26:53.830Z,55.03
2022-12-16T16:29:38.961Z,54.92
2022-12-16T16:32:24.578Z,54.70
2022-12-16T16:35:09.795Z,54.68
2022-12-16T16:37:55.179Z,55.34
2022-12-16T16:40:53.667Z,54.69
2022-12-16T16:43:38.817Z,55.29
2022-12-16T16:46:39.484Z,55.67
2022-12-16T16:49:30.784Z,54.95
2022-12-16T16:52:16.197Z,54.83
2022-12-16T16:55:01.461Z,54.89
2022-12-16T16:57:51.739Z,54.94
2022-12-16T17:00:36.969Z,55.43
2022-12-16T17:03:22.687Z,55.80
2022-12-16T17:06:07.959Z,55.75
2022-12-16T17:08:53.186Z,55.40
2022-12-16T17:11:40.948Z,56.23
2022-12-16T17:14:32.581Z,56.43
2022-12-16T17:17:18.225Z,56.62
2022-12-16T17:20:04.013Z,56.65
2022-12-16T17:22:49.863Z,56.50
2022-12-16T17:25:35.443Z,56.68
2022-12-16T17:28:21.648Z,56.10
2022-12-16T17:31:06.832Z,56.29
2022-12-16T17:33:52.070Z,56.63
2022-12-16T17:36:37.705Z,56.97
2022-12-16T17:39:24.025Z,57.04
2022-12-16T17:42:09.621Z,56.67
2022-12-16T17:44:54.491Z,57.17
2022-12-16T17:47:41.397Z,57.30
2022-12-16T17:50:27.339Z,57.69
2022-12-16T17:53:14.438Z,57.17
2022-12-16T17:56:00.186Z,57.11
2022-12-16T17:58:52.786Z,56.86
2022-12-16T18:01:38.719Z,57.12
2022-12-16T18:04:24.709Z,56.97
2022-12-16T18:07:10.375Z,57.39
2022-12-16T18:09:55.565Z,57.51
2022-12-16T18:12:41.603Z,57.26
2022-12-16T18:15:27.431Z,57.29
2022-12-16T18:18:12.697Z,57.53
2022-12-16T18:20:58.043Z,57.18
2022-12-16T18:23:43.225Z,57.37
2022-12-16T18:26:29.551Z,57.23
2022-12-16T18:29:15.328Z,57.53
2022-12-16T18:32:00.563Z,57.75
2022-12-16T18:34:45.939Z,57.75
2022-12-16T18:37:31.707Z,58.39
2022-12-16T18:40:17.556Z,58.18
2022-12-16T18:43:03.028Z,58.41
2022-12-16T18:45:51.304Z,57.76
2022-12-16T18:48:36.394Z,58.21
2022-12-16T18:51:22.239Z,58.30
2022-12-16T18:54:09.199Z,58.37
2022-12-16T18:56:54.604Z,58.59
2022-12-16T18:59:39.790Z,59.23
2022-12-16T19:02:25.512Z,58.80
2022-12-16T19:05:11.238Z,58.50
2022-12-16T19:07:56.540Z,58.81
2022-12-16T19:10:41.891Z,58.53
2022-12-16T19:13:32.398Z,58.56
2022-12-16T19:16:17.673Z,59.34
2022-12-16T19:19:03.040Z,59.41
2022-12-16T19:24:55.027Z,59.17
2022-12-16T19:27:42.023Z,58.80
2022-12-16T19:30:28.582Z,59.02
2022-12-16T19:33:13.978Z,59.01
2022-12-16T19:35:59.571Z,59.30
2022-12-16T19:38:44.772Z,59.60
2022-12-16T19:41:34.509Z,59.31
2022-12-16T19:44:20.274Z,59.29
2022-12-16T19:47:05.736Z,59.39
2022-12-16T19:49:54.780Z,59.61
2022-12-16T19:52:42.091Z,58.97
2022-12-16T19:55:27.413Z,59.71
2022-12-16T19:58:12.826Z,59.01
2022-12-16T20:01:01.398Z,59.48
2022-12-16T20:03:47.727Z,59.29
2022-12-16T20:06:33.607Z,59.53
2022-12-16T20:09:19.687Z,59.47
2022-12-16T20:12:09.952Z,59.78
2022-12-16T20:14:56.560Z,59.83
2022-12-16T20:17:44.167Z,59.61
2022-12-16T20:20:29.845Z,59.89
2022-12-16T20:23:15.208Z,59.42
2022-12-16T20:26:00.919Z,59.30
2022-12-16T20:28:46.369Z,59.22
2022-12-16T20:31:31.785Z,59.38
2022-12-16T20:34:23.278Z,59.92
2022-12-16T20:37:08.691Z,60.43
2022-12-16T20:39:56.409Z,59.47
2022-12-16T20:43:00.601Z,59.27
2022-12-16T20:45:48.299Z,59.79
2022-12-16T20:48:34.911Z,59.98
2022-12-16T20:51:26.530Z,60.41
2022-12-16T20:54:14.267Z,60.68
2022-12-16T20:56:59.877Z,61.36
2022-12-16T20:59:44.931Z,61.34
2022-12-16T21:05:37.128Z,61.23
2022-12-16T21:08:22.531Z,60.92
2022-12-16T21:11:08.025Z,60.17
2022-12-16T21:13:56.358Z,59.96
2022-12-16T21:16:41.955Z,60.42
2022-12-16T21:19:33.093Z,60.42
2022-12-16T21:22:18.795Z,59.98
2022-12-16T21:25:04.044Z,59.85
2022-12-16T21:27:49.292Z,60.05
2022-12-16T21:30:34.476Z,59.83
2022-12-16T21:33:19.799Z,60.10
2022-12-16T21:36:14.276Z,60.11
2022-12-16T21:39:00.127Z,60.28
2022-12-16T21:41:45.686Z,60.46
2022-12-16T21:44:30.938Z,59.67
2022-12-16T21:47:16.091Z,59.55
2022-12-16T21:50:01.698Z,59.21
2022-12-16T21:52:46.965Z,59.14
2022-12-16T21:55:35.513Z,59.58
2022-12-16T21:58:31.928Z,59.58
2022-12-16T22:01:18.315Z,59.84
2022-12-16T22:04:09.677Z,60.40
2022-12-16T22:06:55.154Z,60.30
2022-12-16T22:09:42.356Z,59.76
2022-12-16T22:12:28.013Z,59.94
2022-12-16T22:15:13.368Z,60.05
2022-12-16T22:17:59.086Z,60.00
2022-12-16T22:20:45.603Z,60.14
2022-12-16T22:23:31.056Z,60.24
2022-12-16T22:26:18.605Z,60.62
2022-12-16T22:29:07.221Z,60.61
2022-12-16T22:31:58.373Z,60.64
2022-12-16T22:34:43.708Z,60.21
2022-12-16T22:37:31.439Z,59.63
2022-12-16T22:40:17.264Z,59.78
2022-12-16T22:43:02.646Z,59.84
2022-12-16T22:45:47.848Z,59.62
2022-12-16T22:48:35.856Z,60.11
2022-12-16T22:51:21.433Z,60.24
2022-12-16T22:54:07.731Z,60.27
2022-12-16T22:56:56.332Z,60.54
2022-12-16T22:59:42.407Z,60.28
2022-12-16T23:02:28.342Z,60.68
2022-12-16T23:05:14.490Z,60.50
2022-12-16T23:08:01.616Z,60.80
2022-12-16T23:10:59.172Z,60.67
2022-12-16T23:13:45.618Z,60.25
2022-12-16T23:16:31.029Z,59.59
2022-12-16T23:19:16.283Z,59.78
2022-12-16T23:22:02.030Z,59.98
2022-12-16T23:25:07.021Z,59.95
2022-12-16T23:27:52.238Z,60.71
2022-12-16T23:30:37.967Z,60.68
2022-12-16T23:33:23.037Z,60.76
2022-12-16T23:36:08.360Z,61.15
2022-12-16T23:38:53.802Z,60.77
2022-12-16T23:41:41.552Z,60.70
2022-12-16T23:44:26.663Z,61.35
2022-12-16T23:47:11.926Z,60.77
2022-12-16T23:49:57.191Z,61.10
2022-12-16T23:52:42.416Z,61.07
2022-12-16T23:55:28.534Z,60.75
2022-12-16T23:58:21.251Z,60.60
